Terminal Aerodrome Forecast
Issued by NWS

Home | Current Version | Previous Version | Text Only | Print | Product List | Glossary On
Versions: 1 2 3 4 5 6 7 8 9 10 11 12 13 14 15 16 17
050
FTUS42 TJSJ 231800 AAA
TAFJBQ
TAF AMD
TJBQ 231800Z 2318/2418 05010KT P6SM VCSH SCT030 SCT050
      TEMPO 2319/2320 5SM SHRA SCT020 BKN040
     FM232300 11005KT P6SM FEW060
     FM241300 08010KT P6SM FEW030 FEW060
      AMD NOT SKED 2402/2411=

USA.gov is the U.S. government's official web portal to all federal, state and local government web resources and services.